createdAt,value
2023-05-19T00:01:17.897Z,7.63
2023-05-19T00:03:57.606Z,7.61
2023-05-19T00:06:26.784Z,7.54
2023-05-19T00:09:09.479Z,7.48
2023-05-19T00:11:37.989Z,7.44
2023-05-19T00:14:10.579Z,7.41
2023-05-19T00:16:40.542Z,7.36
2023-05-19T00:19:10.373Z,7.32
2023-05-19T00:21:40.804Z,7.32
2023-05-19T00:24:07.550Z,7.36
2023-05-19T00:26:34.162Z,7.36
2023-05-19T00:29:01.024Z,7.34
2023-05-19T00:31:27.705Z,7.29
2023-05-19T00:33:55.550Z,7.24
2023-05-19T00:36:23.290Z,7.20
2023-05-19T00:38:51.346Z,7.16
2023-05-19T00:41:18.144Z,7.10
2023-05-19T00:43:44.959Z,7.06
2023-05-19T00:46:11.680Z,6.99
2023-05-19T00:48:38.245Z,6.97
2023-05-19T00:51:06.718Z,6.94
2023-05-19T00:53:34.798Z,6.95
2023-05-19T00:56:02.930Z,6.94
2023-05-19T00:58:31.250Z,6.93
2023-05-19T01:01:03.835Z,6.92
2023-05-19T01:03:36.307Z,6.89
2023-05-19T01:06:07.975Z,6.86
2023-05-19T01:08:37.419Z,6.85
2023-05-19T01:11:08.310Z,6.85
2023-05-19T01:13:36.949Z,6.83
2023-05-19T01:16:18.376Z,6.81
2023-05-19T01:18:57.221Z,6.80
2023-05-19T01:21:36.482Z,6.80
2023-05-19T01:24:34.028Z,6.83
2023-05-19T01:27:34.605Z,6.81
2023-05-19T01:30:26.184Z,6.76
2023-05-19T01:33:01.875Z,6.72
2023-05-19T01:35:29.918Z,6.67
2023-05-19T01:37:58.454Z,6.62
2023-05-19T01:40:26.669Z,6.57
2023-05-19T01:42:57.316Z,6.55
2023-05-19T01:45:25.823Z,6.54
2023-05-19T01:47:55.602Z,6.52
2023-05-19T01:50:22.736Z,6.52
2023-05-19T01:52:49.563Z,6.55
2023-05-19T01:55:16.226Z,6.49
2023-05-19T01:57:55.713Z,6.44
2023-05-19T02:00:33.851Z,6.41
2023-05-19T02:03:15.560Z,6.40
2023-05-19T02:06:06.845Z,6.39
2023-05-19T02:08:54.689Z,6.35
2023-05-19T02:11:40.085Z,6.36
2023-05-19T02:14:09.089Z,6.32
2023-05-19T02:16:37.240Z,6.32
2023-05-19T02:19:03.842Z,6.26
2023-05-19T02:21:33.230Z,6.22
2023-05-19T02:23:59.860Z,6.20
2023-05-19T02:26:26.996Z,6.16
2023-05-19T02:28:53.538Z,6.11
2023-05-19T02:31:20.196Z,6.09
2023-05-19T02:33:46.834Z,6.09
2023-05-19T02:36:14.590Z,6.10
2023-05-19T02:38:41.178Z,6.09
2023-05-19T02:41:07.848Z,6.11
2023-05-19T02:43:34.543Z,6.10
2023-05-19T02:46:03.823Z,6.09
2023-05-19T02:48:40.093Z,6.04
2023-05-19T02:51:18.679Z,6.01
2023-05-19T02:53:48.502Z,6.00
2023-05-19T02:56:15.071Z,6.00
2023-05-19T02:58:43.161Z,6.02
2023-05-19T03:01:10.137Z,6.04
2023-05-19T03:03:36.872Z,6.07
2023-05-19T03:06:08.696Z,6.07
2023-05-19T03:08:36.350Z,6.02
2023-05-19T03:11:03.463Z,5.95
2023-05-19T03:13:29.982Z,5.92
2023-05-19T03:16:00.842Z,5.92
2023-05-19T03:18:27.681Z,5.90
2023-05-19T03:20:54.257Z,5.89
2023-05-19T03:23:24.460Z,5.83
2023-05-19T03:25:51.016Z,5.78
2023-05-19T03:28:17.829Z,5.75
2023-05-19T03:30:44.458Z,5.74
2023-05-19T03:33:11.462Z,5.74
2023-05-19T03:35:38.221Z,5.71
2023-05-19T03:38:04.684Z,5.69
2023-05-19T03:40:31.276Z,5.67
2023-05-19T03:42:58.129Z,5.68
2023-05-19T03:45:24.698Z,5.69
2023-05-19T03:47:51.376Z,5.68
2023-05-19T03:50:21.198Z,5.67
2023-05-19T03:52:48.954Z,5.70
2023-05-19T03:55:20.270Z,5.72
2023-05-19T03:57:47.438Z,5.73
2023-05-19T04:00:14.428Z,5.77
2023-05-19T04:02:41.654Z,5.74
2023-05-19T04:05:08.580Z,5.71
2023-05-19T04:07:38.075Z,5.72
2023-05-19T04:10:05.838Z,5.75
2023-05-19T04:12:33.078Z,5.78
2023-05-19T04:14:59.854Z,5.82
2023-05-19T04:17:27.688Z,5.82
2023-05-19T04:19:54.660Z,5.86
2023-05-19T04:22:21.330Z,5.92
2023-05-19T04:24:48.762Z,6.00
2023-05-19T04:27:16.658Z,6.05
2023-05-19T04:29:43.702Z,6.14
2023-05-19T04:32:10.767Z,6.23
2023-05-19T04:34:40.425Z,6.32
2023-05-19T04:37:07.761Z,6.37
2023-05-19T04:39:34.595Z,6.44
2023-05-19T04:42:02.699Z,6.49
2023-05-19T04:44:30.125Z,6.49
2023-05-19T04:46:58.333Z,6.51
2023-05-19T04:49:24.935Z,6.59
2023-05-19T04:51:55.580Z,6.69
2023-05-19T04:54:24.993Z,6.78
2023-05-19T04:56:51.498Z,6.88
2023-05-19T04:59:18.129Z,6.96
2023-05-19T05:01:44.761Z,7.11
2023-05-19T05:04:11.498Z,7.28
2023-05-19T05:06:42.559Z,7.89
2023-05-19T05:09:10.756Z,8.97
2023-05-19T05:11:37.574Z,9.81
2023-05-19T05:14:04.400Z,10.39
2023-05-19T05:16:31.993Z,10.96
2023-05-19T05:18:58.861Z,11.07
2023-05-19T05:21:27.434Z,11.45
2023-05-19T05:23:54.368Z,12.12
2023-05-19T05:26:28.603Z,12.84
2023-05-19T05:28:55.257Z,13.52
2023-05-19T05:31:21.716Z,13.88
2023-05-19T05:33:48.386Z,13.82
2023-05-19T05:36:15.065Z,13.61
2023-05-19T05:38:41.634Z,12.91
2023-05-19T05:41:12.676Z,13.70
2023-05-19T05:43:39.189Z,14.11
2023-05-19T05:46:05.821Z,14.55
2023-05-19T05:48:32.631Z,15.02
2023-05-19T05:50:59.579Z,15.52
2023-05-19T05:53:30.887Z,15.12
2023-05-19T05:55:58.053Z,14.29
2023-05-19T05:58:24.579Z,13.55
2023-05-19T06:00:53.035Z,12.98
2023-05-19T06:03:24.539Z,12.48
2023-05-19T06:05:51.572Z,12.13
2023-05-19T06:08:18.269Z,12.06
2023-05-19T06:10:47.241Z,12.32
2023-05-19T06:13:21.706Z,12.22
2023-05-19T06:15:48.234Z,12.22
2023-05-19T06:18:17.551Z,12.30
2023-05-19T06:20:46.965Z,12.27
2023-05-19T06:23:13.813Z,12.18
2023-05-19T06:25:40.408Z,12.50
2023-05-19T06:28:06.940Z,12.68
2023-05-19T06:30:33.809Z,12.68
2023-05-19T06:33:00.918Z,12.76
2023-05-19T06:35:27.682Z,13.03
2023-05-19T06:37:56.848Z,13.38
2023-05-19T06:40:23.808Z,13.46
2023-05-19T06:42:50.542Z,13.39
2023-05-19T06:45:21.781Z,13.36
2023-05-19T06:47:49.207Z,13.45
2023-05-19T06:50:15.910Z,13.80
2023-05-19T06:52:42.900Z,13.97
2023-05-19T06:55:09.649Z,14.09
2023-05-19T06:57:38.307Z,14.15
2023-05-19T07:00:06.712Z,14.16
2023-05-19T07:02:33.388Z,14.10
2023-05-19T07:05:00.044Z,14.24
2023-05-19T07:07:26.794Z,14.08
2023-05-19T07:09:53.355Z,14.22
2023-05-19T07:12:20.228Z,14.36
2023-05-19T07:14:46.873Z,14.48
2023-05-19T07:17:13.382Z,14.74
2023-05-19T07:19:45.325Z,14.75
2023-05-19T07:22:11.972Z,14.59
2023-05-19T07:24:38.586Z,14.59
2023-05-19T07:27:05.584Z,14.65
2023-05-19T07:29:32.322Z,14.73
2023-05-19T07:31:58.912Z,14.88
2023-05-19T07:34:25.595Z,14.79
2023-05-19T07:36:52.264Z,14.72
2023-05-19T07:39:19.405Z,14.99
2023-05-19T07:41:52.620Z,15.29
2023-05-19T07:44:21.621Z,15.17
2023-05-19T07:46:50.579Z,15.17
2023-05-19T07:49:17.247Z,15.25
2023-05-19T07:51:43.999Z,15.19
2023-05-19T07:54:10.626Z,15.28
2023-05-19T07:56:37.422Z,15.56
2023-05-19T07:59:04.581Z,15.77
2023-05-19T08:01:32.400Z,15.72
2023-05-19T08:03:59.238Z,15.74
2023-05-19T08:06:26.213Z,15.68
2023-05-19T08:08:54.276Z,15.75
2023-05-19T08:11:21.384Z,16.03
2023-05-19T08:13:51.134Z,16.28
2023-05-19T08:16:17.861Z,16.59
2023-05-19T08:18:44.481Z,16.93
2023-05-19T08:21:13.505Z,16.60
2023-05-19T08:23:40.062Z,16.49
2023-05-19T08:26:06.682Z,16.86
2023-05-19T08:28:33.332Z,16.98
2023-05-19T08:30:59.864Z,17.41
2023-05-19T08:33:26.428Z,17.60
2023-05-19T08:35:53.007Z,17.60
2023-05-19T08:38:19.542Z,17.26
2023-05-19T08:40:48.196Z,17.10
2023-05-19T08:43:14.886Z,17.40
2023-05-19T08:45:46.448Z,17.72
2023-05-19T08:48:14.486Z,17.31
2023-05-19T08:50:44.785Z,17.45
2023-05-19T08:53:31.814Z,17.71
2023-05-19T08:56:09.999Z,18.15
2023-05-19T08:58:39.759Z,18.49
2023-05-19T09:01:07.845Z,18.28
2023-05-19T09:03:39.326Z,18.24
2023-05-19T09:06:08.803Z,18.19
2023-05-19T09:08:37.473Z,17.67
2023-05-19T09:11:04.204Z,17.67
2023-05-19T09:13:31.332Z,17.12
2023-05-19T09:15:58.540Z,17.14
2023-05-19T09:18:26.478Z,16.95
2023-05-19T09:21:00.966Z,17.31
2023-05-19T09:23:30.677Z,17.60
2023-05-19T09:25:57.540Z,17.69
2023-05-19T09:28:30.481Z,18.14
2023-05-19T09:31:07.354Z,18.38
2023-05-19T09:33:45.619Z,18.49
2023-05-19T09:36:12.873Z,18.33
2023-05-19T09:38:39.873Z,18.30
2023-05-19T09:41:07.330Z,18.66
2023-05-19T09:43:35.206Z,18.87
2023-05-19T09:46:11.237Z,18.76
2023-05-19T09:48:39.587Z,18.47
2023-05-19T09:51:08.285Z,18.54
2023-05-19T09:53:38.893Z,18.23
2023-05-19T09:56:06.270Z,18.39
2023-05-19T09:58:36.998Z,18.40
2023-05-19T10:01:04.704Z,18.05
2023-05-19T10:03:33.045Z,18.22
2023-05-19T10:06:02.197Z,18.25
2023-05-19T10:08:30.621Z,18.12
2023-05-19T10:10:57.822Z,17.91
2023-05-19T10:13:25.515Z,17.95
2023-05-19T10:18:23.122Z,18.34
2023-05-19T10:20:50.307Z,18.42
2023-05-19T10:23:22.922Z,18.51
2023-05-19T10:25:53.571Z,18.35
2023-05-19T10:28:23.653Z,18.71
2023-05-19T10:30:53.113Z,18.98
2023-05-19T10:33:24.589Z,19.20
2023-05-19T10:36:10.892Z,19.31
2023-05-19T10:39:16.657Z,19.35
2023-05-19T10:41:51.811Z,19.66
2023-05-19T10:44:28.734Z,19.63
2023-05-19T10:46:56.733Z,19.63
2023-05-19T10:49:24.106Z,19.48
2023-05-19T10:51:52.351Z,19.17
2023-05-19T10:54:40.763Z,19.66
2023-05-19T10:57:08.371Z,19.70
2023-05-19T10:59:37.800Z,19.66
2023-05-19T11:02:05.427Z,19.81
2023-05-19T11:04:51.815Z,19.85
2023-05-19T11:07:20.517Z,19.83
2023-05-19T11:09:56.631Z,20.02
2023-05-19T11:12:25.363Z,20.33
2023-05-19T11:14:55.574Z,20.31
2023-05-19T11:17:25.126Z,19.99
2023-05-19T11:19:58.741Z,20.25
2023-05-19T11:22:28.050Z,20.38
2023-05-19T11:24:55.427Z,20.66
2023-05-19T11:27:35.798Z,20.64
2023-05-19T11:30:11.770Z,20.76
2023-05-19T11:32:44.342Z,20.65
2023-05-19T11:35:11.280Z,20.53
2023-05-19T11:37:37.891Z,20.45
2023-05-19T11:40:08.348Z,20.23
2023-05-19T11:42:36.162Z,20.51
2023-05-19T11:45:04.033Z,20.57
2023-05-19T11:47:42.133Z,20.94
2023-05-19T11:50:20.285Z,21.19
2023-05-19T11:52:47.559Z,21.48
2023-05-19T11:55:18.204Z,21.69
2023-05-19T11:58:06.020Z,21.49
2023-05-19T12:00:40.011Z,20.68
2023-05-19T12:03:09.139Z,20.84
2023-05-19T12:05:41.805Z,20.79
2023-05-19T12:08:10.525Z,21.30
2023-05-19T12:10:38.643Z,21.35
2023-05-19T12:13:09.030Z,21.30
2023-05-19T12:15:36.085Z,21.00
2023-05-19T12:18:03.374Z,21.45
2023-05-19T12:20:32.655Z,21.44
2023-05-19T12:23:00.678Z,21.20
2023-05-19T12:25:28.864Z,21.24
2023-05-19T12:27:59.905Z,20.95
2023-05-19T12:30:28.749Z,20.90
2023-05-19T12:32:57.741Z,21.06
2023-05-19T12:35:29.011Z,21.55
2023-05-19T12:37:55.600Z,21.48
2023-05-19T12:40:22.353Z,21.63
2023-05-19T12:42:51.872Z,22.20
2023-05-19T12:45:21.474Z,22.57
2023-05-19T12:47:49.221Z,23.06
2023-05-19T12:50:16.270Z,23.13
2023-05-19T12:52:48.129Z,23.25
2023-05-19T12:55:16.698Z,23.00
2023-05-19T12:58:00.043Z,23.39
2023-05-19T13:00:32.520Z,23.35
2023-05-19T13:03:07.753Z,23.53
2023-05-19T13:05:37.938Z,23.24
2023-05-19T13:08:09.154Z,23.08
2023-05-19T13:10:39.899Z,23.39
2023-05-19T13:13:07.632Z,23.12
2023-05-19T13:15:41.420Z,23.26
2023-05-19T13:18:12.026Z,22.71
2023-05-19T13:20:41.114Z,22.87
2023-05-19T13:23:07.762Z,22.77
2023-05-19T13:25:34.520Z,22.50
2023-05-19T13:28:03.932Z,22.43
2023-05-19T13:30:30.805Z,22.54
2023-05-19T13:32:57.399Z,22.56
2023-05-19T13:35:24.089Z,22.33
2023-05-19T13:37:51.039Z,22.18
2023-05-19T13:40:19.235Z,22.53
2023-05-19T13:42:51.562Z,23.06
2023-05-19T13:45:18.428Z,23.44
2023-05-19T13:47:45.132Z,22.58
2023-05-19T13:50:12.464Z,22.85
2023-05-19T13:52:39.165Z,23.52
2023-05-19T13:55:07.114Z,24.19
2023-05-19T13:57:34.083Z,25.32
2023-05-19T14:00:03.876Z,25.33
2023-05-19T14:02:31.063Z,25.87
2023-05-19T14:04:57.904Z,26.34
2023-05-19T14:07:25.463Z,26.67
2023-05-19T14:09:52.490Z,25.84
2023-05-19T14:12:19.290Z,24.62
2023-05-19T14:14:48.967Z,24.48
2023-05-19T14:17:15.721Z,24.04
2023-05-19T14:20:04.547Z,23.97
2023-05-19T14:22:31.063Z,24.38
2023-05-19T14:24:57.682Z,24.73
2023-05-19T14:27:25.394Z,25.73
2023-05-19T14:29:51.848Z,26.52
2023-05-19T14:32:18.778Z,26.77
2023-05-19T14:34:45.434Z,26.46
2023-05-19T14:37:12.385Z,26.66
2023-05-19T14:39:38.853Z,26.33
2023-05-19T14:42:05.653Z,26.45
2023-05-19T14:44:34.976Z,26.72
2023-05-19T14:47:04.132Z,26.33
2023-05-19T14:49:30.687Z,25.27
2023-05-19T14:51:57.156Z,25.22
2023-05-19T14:54:23.737Z,26.42
2023-05-19T14:56:50.262Z,27.38
2023-05-19T14:59:16.676Z,27.45
2023-05-19T15:01:44.600Z,28.38
2023-05-19T15:04:11.311Z,28.99
2023-05-19T15:06:37.862Z,27.61
2023-05-19T15:09:04.421Z,26.77
2023-05-19T15:11:31.093Z,25.84
2023-05-19T15:13:57.745Z,24.89
2023-05-19T15:16:24.355Z,25.40
2023-05-19T15:18:51.748Z,26.22
2023-05-19T15:21:18.503Z,27.10
2023-05-19T15:23:45.221Z,27.95
2023-05-19T15:26:11.909Z,28.24
2023-05-19T15:28:38.394Z,28.85
2023-05-19T15:31:04.907Z,28.66
2023-05-19T15:33:31.491Z,27.52
2023-05-19T15:35:57.988Z,27.12
2023-05-19T15:38:24.559Z,28.01
2023-05-19T15:40:51.113Z,28.22
2023-05-19T15:43:17.662Z,26.24
2023-05-19T15:45:44.219Z,24.15
2023-05-19T15:48:11.431Z,22.61
2023-05-19T15:50:38.309Z,21.76
2023-05-19T15:53:06.839Z,21.55
2023-05-19T15:55:33.339Z,21.80
2023-05-19T15:57:59.908Z,21.88
2023-05-19T16:00:26.553Z,22.02
2023-05-19T16:02:53.096Z,21.70
2023-05-19T16:05:22.083Z,21.51
2023-05-19T16:07:48.684Z,20.81
2023-05-19T16:10:15.201Z,20.39
2023-05-19T16:12:41.994Z,20.09
2023-05-19T16:15:08.964Z,19.91
2023-05-19T16:17:35.508Z,19.55
2023-05-19T16:20:02.021Z,19.44
2023-05-19T16:22:30.353Z,19.67
2023-05-19T16:24:56.880Z,19.89
2023-05-19T16:27:23.413Z,19.95
2023-05-19T16:29:50.061Z,19.83
2023-05-19T16:32:16.646Z,19.71
2023-05-19T16:34:43.165Z,19.79
2023-05-19T16:37:09.688Z,19.89
2023-05-19T16:39:37.319Z,19.84
2023-05-19T16:42:04.679Z,19.79
2023-05-19T16:44:34.095Z,19.57
2023-05-19T16:47:00.926Z,19.42
2023-05-19T16:49:27.504Z,19.38
2023-05-19T16:51:54.235Z,19.32
2023-05-19T16:54:21.303Z,19.28
2023-05-19T16:56:47.835Z,19.18
2023-05-19T16:59:14.639Z,19.27
2023-05-19T17:01:41.372Z,19.28
2023-05-19T17:04:08.232Z,19.34
2023-05-19T17:06:38.145Z,19.30
2023-05-19T17:09:04.658Z,19.14
2023-05-19T17:11:31.534Z,18.94
2023-05-19T17:13:59.977Z,18.66
2023-05-19T17:16:26.832Z,18.59
2023-05-19T17:18:53.499Z,18.61
2023-05-19T17:21:20.189Z,18.64
2023-05-19T17:23:46.806Z,18.61
2023-05-19T17:26:13.582Z,18.64
2023-05-19T17:28:40.059Z,18.72
2023-05-19T17:31:11.252Z,18.86
2023-05-19T17:33:38.221Z,19.02
2023-05-19T17:36:05.395Z,19.14
2023-05-19T17:38:32.281Z,19.17
2023-05-19T17:40:59.515Z,19.18
2023-05-19T17:43:26.676Z,19.01
2023-05-19T17:45:53.663Z,18.72
2023-05-19T17:48:20.490Z,18.39
2023-05-19T17:50:48.172Z,18.15
2023-05-19T17:53:16.022Z,18.02
2023-05-19T17:55:49.890Z,17.98
2023-05-19T17:58:17.285Z,17.99
2023-05-19T18:00:43.958Z,18.03
2023-05-19T18:03:12.056Z,18.01
2023-05-19T18:05:40.117Z,17.92
2023-05-19T18:08:09.341Z,17.87
2023-05-19T18:10:37.808Z,17.71
2023-05-19T18:13:05.097Z,17.51
2023-05-19T18:15:31.755Z,17.27
2023-05-19T18:17:58.343Z,17.04
2023-05-19T18:20:25.011Z,16.88
2023-05-19T18:22:51.589Z,16.84
2023-05-19T18:25:20.024Z,16.81
2023-05-19T18:27:47.456Z,16.80
2023-05-19T18:30:14.082Z,16.72
2023-05-19T18:32:40.827Z,16.68
2023-05-19T18:35:08.386Z,16.59
2023-05-19T18:37:35.038Z,16.51
2023-05-19T18:40:01.632Z,16.43
2023-05-19T18:42:28.157Z,16.35
2023-05-19T18:44:54.675Z,16.24
2023-05-19T18:47:22.813Z,16.15
2023-05-19T18:49:50.061Z,16.07
2023-05-19T18:52:17.097Z,16.03
2023-05-19T18:54:45.909Z,15.95
2023-05-19T18:57:12.850Z,15.87
2023-05-19T18:59:39.402Z,15.81
2023-05-19T19:02:06.568Z,15.72
2023-05-19T19:04:33.549Z,15.64
2023-05-19T19:07:00.128Z,15.53
2023-05-19T19:09:26.656Z,15.46
2023-05-19T19:11:53.084Z,15.35
2023-05-19T19:14:19.913Z,15.29
2023-05-19T19:16:46.527Z,15.24
2023-05-19T19:19:13.156Z,15.20
2023-05-19T19:21:39.821Z,15.13
2023-05-19T19:24:06.617Z,15.10
2023-05-19T19:26:33.178Z,15.02
2023-05-19T19:28:59.700Z,14.94
2023-05-19T19:31:31.540Z,14.88
2023-05-19T19:34:00.863Z,14.80
2023-05-19T19:36:27.415Z,14.73
2023-05-19T19:38:54.144Z,14.66
2023-05-19T19:41:21.519Z,14.57
2023-05-19T19:43:48.124Z,14.53
2023-05-19T19:46:14.733Z,14.48
2023-05-19T19:48:41.454Z,14.40
2023-05-19T19:51:08.049Z,14.31
2023-05-19T19:53:34.564Z,14.21
2023-05-19T19:56:02.543Z,14.12
2023-05-19T19:58:29.911Z,14.05
2023-05-19T20:01:00.615Z,13.98
2023-05-19T20:03:27.838Z,13.95
2023-05-19T20:05:55.945Z,13.91
2023-05-19T20:08:29.381Z,13.84
2023-05-19T20:10:56.219Z,13.76
2023-05-19T20:13:24.698Z,13.73
2023-05-19T20:15:51.531Z,13.63
2023-05-19T20:18:18.128Z,13.59
2023-05-19T20:20:44.727Z,13.48
2023-05-19T20:23:12.654Z,13.41
2023-05-19T20:25:54.811Z,13.40
2023-05-19T20:28:29.271Z,13.37
2023-05-19T20:30:55.989Z,13.35
2023-05-19T20:33:22.574Z,13.36
2023-05-19T20:35:49.131Z,13.41
2023-05-19T20:38:15.653Z,13.38
2023-05-19T20:40:42.656Z,13.39
2023-05-19T20:43:12.267Z,13.35
2023-05-19T20:45:38.858Z,13.31
2023-05-19T20:48:06.044Z,13.30
2023-05-19T20:50:32.992Z,13.28
2023-05-19T20:53:00.994Z,13.25
2023-05-19T20:55:27.621Z,13.18
2023-05-19T20:57:54.326Z,13.19
2023-05-19T21:00:21.033Z,13.19
2023-05-19T21:02:47.790Z,13.17
2023-05-19T21:05:14.337Z,13.16
2023-05-19T21:07:41.221Z,13.12
2023-05-19T21:10:08.136Z,13.09
2023-05-19T21:12:35.262Z,13.08
2023-05-19T21:15:02.161Z,13.05
2023-05-19T21:17:28.880Z,13.03
2023-05-19T21:19:59.367Z,13.03
2023-05-19T21:22:27.011Z,13.00
2023-05-19T21:24:56.423Z,12.94
2023-05-19T21:27:23.111Z,12.89
2023-05-19T21:29:54.254Z,12.83
2023-05-19T21:32:24.024Z,12.77
2023-05-19T21:34:50.653Z,12.74
2023-05-19T21:37:19.745Z,12.70
2023-05-19T21:39:46.460Z,12.68
2023-05-19T21:42:16.152Z,12.63
2023-05-19T21:44:42.715Z,12.62
2023-05-19T21:47:09.272Z,12.64
2023-05-19T21:49:35.800Z,12.59
2023-05-19T21:52:02.335Z,12.56
2023-05-19T21:54:29.085Z,12.52
2023-05-19T21:56:55.596Z,12.49
2023-05-19T21:59:24.829Z,12.47
2023-05-19T22:01:51.443Z,12.46
2023-05-19T22:04:18.901Z,12.42
2023-05-19T22:06:45.678Z,12.36
2023-05-19T22:09:12.800Z,12.32
2023-05-19T22:11:39.725Z,12.32
2023-05-19T22:14:06.478Z,12.30
2023-05-19T22:16:33.072Z,12.31
2023-05-19T22:18:59.776Z,12.27
2023-05-19T22:21:26.349Z,12.25
2023-05-19T22:23:52.889Z,12.22
2023-05-19T22:26:22.357Z,12.20
2023-05-19T22:28:50.152Z,12.15
2023-05-19T22:31:17.032Z,12.15
2023-05-19T22:33:43.711Z,12.10
2023-05-19T22:36:11.151Z,12.06
2023-05-19T22:38:37.702Z,12.04
2023-05-19T22:41:04.303Z,11.97
2023-05-19T22:43:31.172Z,11.92
2023-05-19T22:45:57.778Z,11.86
2023-05-19T22:48:26.560Z,11.82
2023-05-19T22:50:53.181Z,11.73
2023-05-19T22:53:19.832Z,11.65
2023-05-19T22:55:46.694Z,11.57
2023-05-19T22:58:13.191Z,11.51
2023-05-19T23:00:39.696Z,11.48
2023-05-19T23:03:08.092Z,11.42
2023-05-19T23:05:35.268Z,11.38
2023-05-19T23:08:02.169Z,11.30
2023-05-19T23:10:28.879Z,11.27
2023-05-19T23:12:55.364Z,11.21
2023-05-19T23:15:21.919Z,11.21
2023-05-19T23:17:48.646Z,11.16
2023-05-19T23:20:15.286Z,11.14
2023-05-19T23:22:41.875Z,11.13
2023-05-19T23:25:08.472Z,11.08
2023-05-19T23:27:35.803Z,10.97
2023-05-19T23:30:03.466Z,10.91
2023-05-19T23:32:30.103Z,10.92
2023-05-19T23:34:56.636Z,10.88
2023-05-19T23:37:23.275Z,10.84
2023-05-19T23:39:49.889Z,10.78
2023-05-19T23:42:16.538Z,10.77
2023-05-19T23:44:43.136Z,10.75
2023-05-19T23:47:09.812Z,10.71
2023-05-19T23:49:36.356Z,10.72
2023-05-19T23:52:02.987Z,10.71
2023-05-19T23:54:30.288Z,10.68
2023-05-19T23:56:56.983Z,10.61
2023-05-19T23:59:23.516Z,10.61
